createdAt,value
2022-09-15T00:00:20.646Z,7.37
2022-09-15T00:02:47.219Z,7.97
2022-09-15T00:05:13.893Z,8.17
2022-09-15T00:07:40.433Z,9.73
2022-09-15T00:10:06.952Z,9.80
2022-09-15T00:12:33.550Z,10.87
2022-09-15T00:15:00.182Z,10.13
2022-09-15T00:17:26.769Z,11.70
2022-09-15T00:19:53.286Z,11.40
2022-09-15T00:22:19.783Z,11.93
2022-09-15T00:24:46.270Z,9.53
2022-09-15T00:27:12.818Z,9.57
2022-09-15T00:29:39.652Z,10.00
2022-09-15T00:32:06.156Z,7.77
2022-09-15T00:34:32.785Z,7.63
2022-09-15T00:36:59.399Z,7.37
2022-09-15T00:39:25.910Z,6.67
2022-09-15T00:41:52.436Z,7.23
2022-09-15T00:44:19.002Z,6.93
2022-09-15T00:46:58.690Z,6.73
2022-09-15T00:49:32.440Z,7.13
2022-09-15T00:51:58.979Z,7.73
2022-09-15T00:54:25.499Z,7.67
2022-09-15T00:56:52.298Z,7.40
2022-09-15T00:59:18.865Z,7.20
2022-09-15T01:01:45.590Z,7.40
2022-09-15T01:04:12.162Z,7.03
2022-09-15T01:06:38.692Z,6.50
2022-09-15T01:09:13.376Z,5.33
2022-09-15T01:11:39.870Z,5.40
2022-09-15T01:14:06.549Z,5.20
2022-09-15T01:16:33.460Z,3.90
2022-09-15T01:19:00.050Z,3.93
2022-09-15T01:21:26.710Z,4.03
2022-09-15T01:23:53.296Z,3.27
2022-09-15T01:26:19.774Z,3.83
2022-09-15T01:28:46.689Z,3.40
2022-09-15T01:31:13.354Z,3.37
2022-09-15T01:33:39.934Z,3.27
2022-09-15T01:36:18.305Z,3.40
2022-09-15T01:38:44.919Z,3.07
2022-09-15T01:41:19.522Z,3.60
2022-09-15T01:43:46.074Z,2.90
2022-09-15T01:48:52.977Z,3.57
2022-09-15T01:51:19.649Z,3.40
2022-09-15T01:53:46.281Z,2.87
2022-09-15T01:56:12.864Z,2.87
2022-09-15T01:58:39.525Z,2.60
2022-09-15T02:01:06.140Z,2.13
2022-09-15T02:03:33.130Z,2.30
2022-09-15T02:05:59.959Z,2.47
2022-09-15T02:08:26.454Z,2.43
2022-09-15T02:10:53.096Z,2.93
2022-09-15T02:13:27.725Z,2.30
2022-09-15T02:15:54.388Z,2.20
2022-09-15T02:18:20.874Z,2.10
2022-09-15T02:20:47.447Z,2.40
2022-09-15T02:23:14.110Z,2.17
2022-09-15T02:25:40.979Z,2.33
2022-09-15T02:28:07.745Z,2.37
2022-09-15T02:30:34.285Z,1.80
2022-09-15T02:33:00.769Z,2.30
2022-09-15T02:35:27.458Z,2.07
2022-09-15T02:37:54.106Z,1.90
2022-09-15T02:40:20.745Z,2.40
2022-09-15T02:42:47.406Z,1.90
2022-09-15T02:45:13.925Z,1.90
2022-09-15T02:47:40.562Z,2.10
2022-09-15T02:50:07.417Z,1.93
2022-09-15T02:52:34.034Z,2.23
2022-09-15T02:55:00.501Z,2.30
2022-09-15T02:57:27.022Z,2.43
2022-09-15T02:59:53.694Z,2.47
2022-09-15T03:02:20.632Z,2.23
2022-09-15T03:04:47.250Z,1.97
2022-09-15T03:07:13.757Z,2.17
2022-09-15T03:09:40.240Z,2.10
2022-09-15T03:12:06.707Z,1.93
2022-09-15T03:14:33.251Z,2.20
2022-09-15T03:16:59.887Z,1.80
2022-09-15T03:19:26.544Z,2.03
2022-09-15T03:21:53.025Z,2.40
2022-09-15T03:24:19.559Z,2.73
2022-09-15T03:26:46.052Z,2.20
2022-09-15T03:29:12.542Z,2.10
2022-09-15T03:31:39.238Z,2.00
2022-09-15T03:34:05.776Z,2.10
2022-09-15T03:36:32.298Z,1.93
2022-09-15T03:38:58.843Z,2.37
2022-09-15T03:41:25.355Z,2.10
2022-09-15T03:43:51.995Z,2.30
2022-09-15T03:46:18.548Z,2.40
2022-09-15T03:48:45.064Z,2.20
2022-09-15T03:51:11.551Z,2.20
2022-09-15T03:53:38.070Z,2.20
2022-09-15T03:56:04.578Z,2.40
2022-09-15T03:58:31.065Z,2.20
2022-09-15T04:00:57.670Z,2.27
2022-09-15T04:03:24.179Z,2.20
2022-09-15T04:05:50.655Z,2.20
2022-09-15T04:08:17.211Z,2.23
2022-09-15T04:10:43.748Z,2.50
2022-09-15T04:13:10.269Z,2.27
2022-09-15T04:15:36.815Z,2.37
2022-09-15T04:18:03.341Z,2.40
2022-09-15T04:20:29.857Z,2.57
2022-09-15T04:22:56.382Z,2.13
2022-09-15T04:25:22.857Z,2.30
2022-09-15T04:27:49.420Z,2.33
2022-09-15T04:30:15.955Z,2.23
2022-09-15T04:32:42.480Z,2.50
2022-09-15T04:35:09.002Z,2.50
2022-09-15T04:37:35.515Z,2.40
2022-09-15T04:40:02.102Z,2.30
2022-09-15T04:42:28.778Z,2.50
2022-09-15T04:44:55.303Z,2.73
2022-09-15T04:47:21.775Z,2.63
2022-09-15T04:49:48.278Z,2.30
2022-09-15T04:52:14.814Z,2.13
2022-09-15T04:54:41.298Z,2.20
2022-09-15T04:57:07.839Z,2.43
2022-09-15T04:59:34.313Z,2.10
2022-09-15T05:02:00.860Z,1.73
2022-09-15T05:04:27.591Z,2.37
2022-09-15T05:06:54.115Z,1.67
2022-09-15T05:09:20.637Z,1.90
2022-09-15T05:11:47.125Z,1.90
2022-09-15T05:14:13.663Z,2.10
2022-09-15T05:16:40.293Z,1.77
2022-09-15T05:19:06.919Z,1.80
2022-09-15T05:21:33.446Z,2.10
2022-09-15T05:23:59.961Z,1.80
2022-09-15T05:26:26.530Z,2.00
2022-09-15T05:28:53.073Z,1.77
2022-09-15T05:31:19.644Z,1.73
2022-09-15T05:33:46.189Z,1.60
2022-09-15T05:36:12.709Z,2.00
2022-09-15T05:38:39.192Z,1.47
2022-09-15T05:41:05.726Z,1.47
2022-09-15T05:43:32.274Z,1.70
2022-09-15T05:45:58.798Z,2.00
2022-09-15T05:48:25.326Z,1.60
2022-09-15T05:50:51.873Z,1.60
2022-09-15T05:53:18.395Z,1.67
2022-09-15T05:55:44.913Z,1.60
2022-09-15T05:58:11.458Z,2.03
2022-09-15T06:00:37.973Z,1.67
2022-09-15T06:03:04.604Z,1.70
2022-09-15T06:05:31.178Z,1.90
2022-09-15T06:07:57.711Z,1.57
2022-09-15T06:10:25.524Z,1.70
2022-09-15T06:12:52.026Z,2.07
2022-09-15T06:15:18.499Z,1.90
2022-09-15T06:17:44.986Z,1.60
2022-09-15T06:20:11.494Z,1.80
2022-09-15T06:22:38.028Z,1.70
2022-09-15T06:25:04.547Z,1.50
2022-09-15T06:27:31.029Z,1.50
2022-09-15T06:29:57.659Z,1.70
2022-09-15T06:32:24.165Z,1.30
2022-09-15T06:34:50.699Z,1.30
2022-09-15T06:37:29.904Z,1.47
2022-09-15T06:39:56.470Z,1.40
2022-09-15T06:42:23.095Z,1.67
2022-09-15T06:44:49.619Z,1.60
2022-09-15T06:47:16.105Z,1.80
2022-09-15T06:49:42.640Z,1.60
2022-09-15T06:52:09.165Z,1.77
2022-09-15T06:54:35.728Z,2.13
2022-09-15T06:57:02.357Z,2.00
2022-09-15T06:59:28.930Z,2.00
2022-09-15T07:01:55.510Z,1.80
2022-09-15T07:04:22.065Z,1.80
2022-09-15T07:06:48.573Z,1.90
2022-09-15T07:09:15.054Z,1.90
2022-09-15T07:11:41.545Z,2.20
2022-09-15T07:14:08.050Z,1.70
2022-09-15T07:16:34.660Z,1.80
2022-09-15T07:19:01.238Z,2.20
2022-09-15T07:21:28.123Z,1.60
2022-09-15T07:23:54.637Z,1.60
2022-09-15T07:26:21.166Z,1.60
2022-09-15T07:28:47.671Z,1.30
2022-09-15T07:31:14.196Z,1.50
2022-09-15T07:33:40.768Z,1.90
2022-09-15T07:36:07.317Z,1.57
2022-09-15T07:38:33.850Z,1.43
2022-09-15T07:41:00.385Z,1.60
2022-09-15T07:43:26.904Z,1.53
2022-09-15T07:45:53.521Z,1.60
2022-09-15T07:48:23.263Z,1.50
2022-09-15T07:50:52.823Z,1.67
2022-09-15T07:53:19.381Z,1.43
2022-09-15T07:55:45.873Z,1.50
2022-09-15T07:58:12.415Z,1.20
2022-09-15T08:00:38.985Z,1.30
2022-09-15T08:03:05.538Z,1.63
2022-09-15T08:05:34.756Z,1.50
2022-09-15T08:08:04.704Z,1.63
2022-09-15T08:10:31.194Z,1.30
2022-09-15T08:12:57.721Z,1.60
2022-09-15T08:15:24.395Z,1.73
2022-09-15T08:17:50.934Z,1.80
2022-09-15T08:20:17.476Z,1.70
2022-09-15T08:22:44.064Z,1.60
2022-09-15T08:25:10.605Z,1.73
2022-09-15T08:27:37.140Z,1.60
2022-09-15T08:30:03.690Z,1.40
2022-09-15T08:32:30.181Z,1.40
2022-09-15T08:34:56.804Z,1.40
2022-09-15T08:37:23.547Z,1.73
2022-09-15T08:40:01.425Z,1.20
2022-09-15T08:42:28.369Z,1.33
2022-09-15T08:44:54.871Z,1.30
2022-09-15T08:47:29.563Z,1.40
2022-09-15T09:03:14.301Z,1.43
2022-09-15T09:05:40.827Z,1.80
2022-09-15T09:08:07.377Z,1.23
2022-09-15T09:10:33.898Z,1.13
2022-09-15T09:13:00.436Z,1.20
2022-09-15T09:15:27.079Z,1.23
2022-09-15T09:17:53.665Z,1.00
2022-09-15T09:20:20.137Z,1.20
2022-09-15T09:22:46.648Z,1.20
2022-09-15T09:25:26.803Z,1.30
2022-09-15T09:27:54.377Z,1.40
2022-09-15T09:30:20.851Z,1.43
2022-09-15T09:32:47.338Z,1.67
2022-09-15T09:35:13.843Z,1.50
2022-09-15T09:37:40.382Z,1.57
2022-09-15T09:40:06.982Z,1.50
2022-09-15T09:42:33.599Z,2.03
2022-09-15T09:45:00.225Z,1.83
2022-09-15T09:47:26.760Z,1.60
2022-09-15T09:49:53.311Z,2.10
2022-09-15T09:52:22.014Z,2.20
2022-09-15T09:54:48.603Z,2.10
2022-09-15T09:57:15.081Z,2.40
2022-09-15T09:59:41.614Z,2.67
2022-09-15T10:02:08.129Z,3.30
2022-09-15T10:04:34.753Z,2.70
2022-09-15T10:07:01.247Z,2.97
2022-09-15T10:09:32.575Z,2.83
2022-09-15T10:11:59.830Z,2.50
2022-09-15T10:14:26.393Z,2.73
2022-09-15T10:16:52.933Z,2.90
2022-09-15T10:19:19.421Z,2.63
2022-09-15T10:21:45.941Z,2.60
2022-09-15T10:24:13.582Z,2.40
2022-09-15T10:26:42.867Z,2.37
2022-09-15T10:29:09.425Z,2.73
2022-09-15T10:31:35.961Z,2.40
2022-09-15T10:34:02.515Z,1.87
2022-09-15T10:36:29.090Z,1.57
2022-09-15T10:38:55.627Z,1.70
2022-09-15T10:41:22.154Z,2.20
2022-09-15T10:43:48.690Z,1.90
2022-09-15T10:46:15.220Z,2.00
2022-09-15T10:48:42.110Z,2.50
2022-09-15T10:51:08.650Z,2.67
2022-09-15T10:53:35.114Z,3.10
2022-09-15T10:56:01.629Z,2.70
2022-09-15T10:58:28.158Z,3.07
2022-09-15T11:00:54.658Z,3.27
2022-09-15T11:03:21.251Z,3.40
2022-09-15T11:05:47.730Z,3.50
2022-09-15T11:08:14.287Z,3.83
2022-09-15T11:10:40.809Z,3.27
2022-09-15T11:13:07.327Z,3.27
2022-09-15T11:15:33.822Z,3.63
2022-09-15T11:18:00.349Z,3.90
2022-09-15T11:20:26.881Z,3.80
2022-09-15T11:22:53.454Z,3.93
2022-09-15T11:25:19.934Z,3.83
2022-09-15T11:27:46.474Z,4.00
2022-09-15T11:30:13.023Z,4.37
2022-09-15T11:32:39.607Z,4.10
2022-09-15T11:35:06.233Z,4.00
2022-09-15T11:37:32.866Z,4.67
2022-09-15T11:39:59.427Z,4.30
2022-09-15T11:42:25.990Z,4.80
2022-09-15T11:44:52.513Z,3.70
2022-09-15T11:47:19.069Z,4.60
2022-09-15T11:49:45.562Z,4.00
2022-09-15T11:52:12.051Z,3.57
2022-09-15T11:54:38.707Z,3.30
2022-09-15T11:57:05.237Z,3.00
2022-09-15T11:59:31.745Z,3.73
2022-09-15T12:01:58.338Z,3.93
2022-09-15T12:04:24.847Z,3.60
2022-09-15T12:06:51.378Z,4.10
2022-09-15T12:09:17.925Z,3.53
2022-09-15T12:11:44.411Z,3.53
2022-09-15T12:14:10.946Z,3.43
2022-09-15T12:16:37.514Z,3.37
2022-09-15T12:19:04.002Z,3.73
2022-09-15T12:21:30.538Z,3.43
2022-09-15T12:23:57.048Z,6.77
2022-09-15T12:26:23.540Z,4.40
2022-09-15T12:28:50.381Z,3.53
2022-09-15T12:31:16.956Z,3.10
2022-09-15T12:33:43.525Z,3.33
2022-09-15T12:36:10.018Z,3.20
2022-09-15T12:38:36.572Z,3.57
2022-09-15T12:41:03.217Z,3.47
2022-09-15T12:43:29.693Z,3.37
2022-09-15T12:45:56.629Z,3.73
2022-09-15T12:48:23.206Z,4.23
2022-09-15T12:50:49.742Z,1.20
2022-09-15T12:53:16.346Z,0.90
2022-09-15T12:55:43.182Z,2.30
2022-09-15T12:58:09.668Z,1.63
2022-09-15T13:00:36.219Z,1.10
2022-09-15T13:03:02.947Z,1.60
2022-09-15T13:05:29.660Z,1.50
2022-09-15T13:08:04.210Z,1.80
2022-09-15T13:10:30.769Z,2.00
2022-09-15T13:13:06.287Z,0.87
2022-09-15T13:18:13.231Z,0.83
2022-09-15T13:20:39.781Z,0.50
2022-09-15T13:23:06.434Z,0.87
2022-09-15T13:25:32.930Z,1.07
2022-09-15T13:27:59.824Z,0.77
2022-09-15T13:30:26.320Z,1.30
2022-09-15T13:32:52.999Z,1.03
2022-09-15T13:35:20.836Z,1.20
2022-09-15T13:38:12.208Z,1.20
2022-09-15T13:40:34.524Z,1.80
2022-09-15T13:43:01.232Z,1.90
2022-09-15T13:45:27.717Z,1.67
2022-09-15T13:47:54.242Z,2.00
2022-09-15T13:50:20.764Z,1.70
2022-09-15T13:52:47.380Z,1.80
2022-09-15T13:55:13.862Z,1.80
2022-09-15T14:00:26.998Z,1.70
2022-09-15T14:02:53.648Z,1.70
2022-09-15T14:05:20.176Z,1.60
2022-09-15T14:07:48.724Z,2.00
2022-09-15T14:10:17.362Z,2.10
2022-09-15T14:12:44.158Z,2.57
2022-09-15T14:15:10.708Z,2.40
2022-09-15T14:17:37.381Z,1.90
2022-09-15T14:20:12.939Z,1.90
2022-09-15T14:22:39.465Z,2.17
2022-09-15T14:25:05.962Z,1.90
2022-09-15T14:27:32.498Z,1.50
2022-09-15T14:32:39.419Z,1.90
2022-09-15T14:35:05.952Z,2.63
2022-09-15T14:37:32.756Z,2.30
2022-09-15T14:39:59.433Z,2.13
2022-09-15T14:42:26.024Z,1.70
2022-09-15T14:47:56.200Z,2.00
2022-09-15T14:50:22.673Z,1.43
2022-09-15T14:52:57.252Z,2.30
2022-09-15T14:55:23.762Z,1.10
2022-09-15T14:57:50.376Z,1.40
2022-09-15T15:00:16.882Z,1.30
2022-09-15T15:02:45.411Z,1.10
2022-09-15T15:05:12.312Z,1.50
2022-09-15T15:07:38.875Z,1.00
2022-09-15T15:10:13.549Z,0.90
2022-09-15T15:12:48.334Z,1.00
2022-09-15T15:15:23.321Z,0.90
2022-09-15T15:17:50.188Z,0.90
2022-09-15T15:20:17.053Z,1.10
2022-09-15T15:22:43.908Z,1.00
2022-09-15T15:25:19.353Z,1.10
2022-09-15T15:27:57.816Z,0.90
2022-09-15T15:30:24.457Z,1.00
2022-09-15T15:32:53.446Z,1.30
2022-09-15T15:35:20.106Z,0.93
2022-09-15T15:37:48.011Z,1.43
2022-09-15T15:40:15.702Z,1.20
2022-09-15T15:42:45.332Z,1.20
2022-09-15T15:45:12.142Z,1.10
2022-09-15T15:47:39.065Z,1.20
2022-09-15T15:50:14.023Z,1.33
2022-09-15T15:52:41.155Z,1.30
2022-09-15T15:57:48.207Z,1.47
2022-09-15T16:00:17.722Z,1.50
2022-09-15T16:02:47.865Z,1.30
2022-09-15T16:05:14.741Z,1.23
2022-09-15T16:07:41.505Z,1.80
2022-09-15T16:10:08.138Z,1.67
2022-09-15T16:12:42.434Z,1.53
2022-09-15T16:20:30.130Z,1.70
2022-09-15T16:22:56.713Z,1.60
2022-09-15T16:25:23.261Z,1.50
2022-09-15T16:27:50.828Z,1.30
2022-09-15T16:30:17.482Z,1.30
2022-09-15T16:32:44.124Z,1.30
2022-09-15T16:35:10.731Z,1.50
2022-09-15T16:37:37.595Z,1.67
2022-09-15T16:40:04.181Z,1.30
2022-09-15T16:42:30.905Z,1.40
2022-09-15T16:45:07.731Z,1.40
2022-09-15T16:47:34.710Z,1.10
2022-09-15T16:50:10.202Z,1.37
2022-09-15T16:52:37.624Z,1.80
2022-09-15T16:55:04.749Z,2.23
2022-09-15T16:57:31.286Z,0.97
2022-09-15T16:59:57.921Z,1.30
2022-09-15T17:02:33.052Z,1.33
2022-09-15T17:04:59.625Z,0.93
2022-09-15T17:07:26.495Z,0.90
2022-09-15T17:09:52.994Z,1.70
2022-09-15T17:14:59.965Z,1.33
2022-09-15T17:17:35.186Z,1.60
2022-09-15T17:20:10.746Z,2.00
2022-09-15T17:22:37.626Z,1.10
2022-09-15T17:25:05.160Z,0.80
2022-09-15T17:27:32.064Z,1.40
2022-09-15T17:30:01.470Z,1.20
2022-09-15T17:32:42.830Z,1.53
2022-09-15T17:35:10.681Z,1.77
2022-09-15T17:40:29.680Z,1.43
2022-09-15T17:42:56.177Z,1.20
2022-09-15T17:45:33.639Z,0.97
2022-09-15T17:48:00.223Z,1.00
2022-09-15T17:50:35.504Z,1.00
2022-09-15T17:53:02.628Z,0.63
2022-09-15T17:55:29.507Z,0.93
2022-09-15T17:57:58.246Z,1.40
2022-09-15T18:00:25.163Z,0.90
2022-09-15T18:02:51.715Z,1.00
2022-09-15T18:05:18.749Z,0.70
2022-09-15T18:07:45.411Z,0.30
2022-09-15T18:10:12.067Z,0.47
2022-09-15T18:12:39.256Z,0.90
2022-09-15T18:15:06.382Z,0.70
2022-09-15T18:17:35.605Z,0.83
2022-09-15T18:22:54.181Z,1.10
2022-09-15T18:25:23.466Z,1.10
2022-09-15T18:30:30.686Z,1.17
2022-09-15T18:35:47.390Z,0.60
2022-09-15T18:38:22.742Z,1.53
2022-09-15T18:40:49.620Z,1.97
2022-09-15T18:43:16.106Z,0.70
2022-09-15T18:45:42.704Z,0.90
2022-09-15T18:48:12.629Z,1.30
2022-09-15T18:50:39.892Z,0.50
2022-09-15T18:53:06.836Z,0.70
2022-09-15T18:55:42.129Z,0.70
2022-09-15T18:58:09.113Z,0.60
2022-09-15T19:00:46.823Z,0.90
2022-09-15T19:03:15.305Z,0.70
2022-09-15T19:05:53.043Z,0.80
2022-09-15T19:08:21.983Z,0.80
2022-09-15T19:10:53.098Z,0.80
2022-09-15T19:13:29.266Z,1.20
2022-09-15T19:15:56.475Z,0.83
2022-09-15T19:18:33.743Z,0.73
2022-09-15T19:21:09.516Z,1.50
2022-09-15T19:23:36.102Z,0.63
2022-09-15T19:26:03.794Z,1.40
2022-09-15T19:28:31.001Z,0.70
2022-09-15T19:30:57.565Z,0.80
2022-09-15T19:33:34.889Z,1.20
2022-09-15T19:36:27.004Z,1.10
2022-09-15T19:39:05.776Z,0.80
2022-09-15T19:41:38.447Z,0.77
2022-09-15T19:44:05.336Z,0.90
2022-09-15T19:46:31.921Z,0.90
2022-09-15T19:51:54.610Z,1.03
2022-09-15T19:54:22.633Z,1.30
2022-09-15T19:56:49.215Z,0.90
2022-09-15T19:59:16.724Z,1.00
2022-09-15T20:04:23.990Z,2.33
2022-09-15T20:06:50.923Z,1.30
2022-09-15T20:09:17.397Z,1.00
2022-09-15T20:11:45.285Z,1.00
2022-09-15T20:14:21.418Z,1.30
2022-09-15T20:16:48.338Z,1.30
2022-09-15T20:19:23.596Z,1.27
2022-09-15T20:21:51.429Z,1.40
2022-09-15T20:24:26.376Z,1.90
2022-09-15T20:26:52.950Z,1.83
2022-09-15T20:29:19.492Z,1.90
2022-09-15T20:31:46.074Z,1.97
2022-09-15T20:36:53.272Z,2.40
2022-09-15T20:39:19.900Z,2.40
2022-09-15T20:41:46.553Z,2.73
2022-09-15T20:44:13.153Z,2.63
2022-09-15T20:46:39.650Z,3.10
2022-09-15T20:49:06.451Z,3.10
2022-09-15T20:51:33.125Z,2.40
2022-09-15T20:53:59.677Z,2.73
2022-09-15T20:56:34.401Z,3.23
2022-09-15T20:59:01.224Z,3.00
2022-09-15T21:01:27.786Z,3.73
2022-09-15T21:03:54.650Z,3.50
2022-09-15T21:06:22.138Z,3.80
2022-09-15T21:08:56.822Z,3.60
2022-09-15T21:11:23.697Z,4.03
2022-09-15T21:13:50.517Z,4.13
2022-09-15T21:16:29.357Z,4.50
2022-09-15T21:19:03.934Z,5.00
2022-09-15T21:21:30.433Z,5.27
2022-09-15T21:26:40.674Z,5.17
2022-09-15T21:29:08.551Z,5.30
2022-09-15T21:31:35.245Z,5.43
2022-09-15T21:34:02.145Z,5.20
2022-09-15T21:36:28.744Z,6.00
2022-09-15T21:39:04.574Z,5.70
2022-09-15T21:41:43.030Z,6.10
2022-09-15T21:44:09.908Z,6.20
2022-09-15T21:46:45.142Z,4.97
2022-09-15T21:49:11.775Z,6.50
2022-09-15T21:51:47.465Z,5.80
2022-09-15T21:56:55.757Z,9.83
2022-09-15T21:59:36.302Z,6.83
2022-09-15T22:02:02.919Z,5.67
2022-09-15T22:04:29.650Z,6.43
2022-09-15T22:06:57.433Z,5.93
2022-09-15T22:09:24.091Z,6.27
2022-09-15T22:11:54.919Z,6.33
2022-09-15T22:14:22.774Z,5.83
2022-09-15T22:16:52.709Z,6.70
2022-09-15T22:19:22.065Z,5.80
2022-09-15T22:21:58.222Z,6.13
2022-09-15T22:24:25.211Z,5.93
2022-09-15T22:26:51.902Z,6.47
2022-09-15T22:29:21.427Z,6.90
2022-09-15T22:31:48.977Z,6.90
2022-09-15T22:34:16.680Z,8.87
2022-09-15T22:36:44.356Z,7.90
2022-09-15T22:39:13.714Z,7.57
2022-09-15T22:41:40.427Z,7.03
2022-09-15T22:44:17.521Z,7.00
2022-09-15T22:46:44.136Z,7.00
2022-09-15T22:49:10.619Z,6.70
2022-09-15T22:51:37.103Z,6.80
2022-09-15T22:54:05.238Z,7.83
2022-09-15T22:56:40.531Z,6.53
2022-09-15T22:59:19.754Z,6.80
2022-09-15T23:01:46.450Z,7.10
2022-09-15T23:04:16.430Z,7.50
2022-09-15T23:06:45.720Z,6.87
2022-09-15T23:09:12.198Z,7.87
2022-09-15T23:11:48.205Z,7.27
2022-09-15T23:14:20.780Z,8.37
2022-09-15T23:19:28.294Z,9.17
2022-09-15T23:22:03.767Z,8.47
2022-09-15T23:24:30.329Z,9.83
2022-09-15T23:26:57.179Z,9.00
2022-09-15T23:29:34.408Z,8.77
2022-09-15T23:32:01.267Z,9.87
2022-09-15T23:34:27.986Z,9.43
2022-09-15T23:36:54.575Z,9.30
2022-09-15T23:42:01.925Z,9.53
2022-09-15T23:44:29.623Z,9.63
2022-09-15T23:46:56.235Z,8.57
2022-09-15T23:49:23.027Z,9.20
2022-09-15T23:51:49.902Z,9.17
2022-09-15T23:54:16.418Z,10.00
2022-09-15T23:56:51.154Z,9.80
2022-09-15T23:59:25.782Z,10.13
